Millport, Alabama
Current Conditions -  °F | °C
As of 5:58 AM on Thursday 27 Nov 2014 (Local Time) from KCBM Reporting Station
Clear Clear  
Wind Chill: 29°   Ceiling: Unl
Heat Index: 37°   Visibility: 10mi
Dew Point: 28°   Wind: 13mph
Humidity: 70%   Direction: 330°NNW
Pressure: 30.34"   Gusts: NA
Location:  33.56°N, 88.08°W
Report Text: KCBM 271158Z AUTO 33011KT 10SM CLR 03/M02 A3034 RMK AO2 SLP278 T00291020 10048 20003 52025 $
Loading
Personal Weather Stations






























Interactive Weather Map New forecast layout! Learn more

10-Day Weather Forecast

Advertisements
Track Severe Weather on mobile